sensor_id;sensor_type;location;lat;lon;timestamp;P1;durP1;ratioP1;P2;durP2;ratioP2
6209;SDS011;3138;52.550;13.148;2022-12-18T00:00:43;87.07;;;29.37;;
6209;SDS011;3138;52.550;13.148;2022-12-18T00:03:11;94.53;;;31.57;;
6209;SDS011;3138;52.550;13.148;2022-12-18T00:05:45;101.03;;;31.60;;
6209;SDS011;3138;52.550;13.148;2022-12-18T00:08:13;100.97;;;32.23;;
6209;SDS011;3138;52.550;13.148;2022-12-18T00:10:41;111.33;;;30.43;;
6209;SDS011;3138;52.550;13.148;2022-12-18T00:13:08;91.87;;;28.90;;
6209;SDS011;3138;52.550;13.148;2022-12-18T00:15:35;98.23;;;29.90;;
6209;SDS011;3138;52.550;13.148;2022-12-18T00:18:03;102.30;;;29.93;;
6209;SDS011;3138;52.550;13.148;2022-12-18T00:20:30;78.90;;;28.27;;
6209;SDS011;3138;52.550;13.148;2022-12-18T00:22:57;102.50;;;33.20;;
6209;SDS011;3138;52.550;13.148;2022-12-18T00:25:24;97.90;;;31.20;;
6209;SDS011;3138;52.550;13.148;2022-12-18T00:27:52;96.53;;;30.33;;
6209;SDS011;3138;52.550;13.148;2022-12-18T00:30:19;113.83;;;31.60;;
6209;SDS011;3138;52.550;13.148;2022-12-18T00:32:46;108.30;;;32.17;;
6209;SDS011;3138;52.550;13.148;2022-12-18T00:35:13;103.73;;;32.97;;
6209;SDS011;3138;52.550;13.148;2022-12-18T00:37:39;106.90;;;31.07;;
6209;SDS011;3138;52.550;13.148;2022-12-18T00:40:07;93.17;;;32.60;;
6209;SDS011;3138;52.550;13.148;2022-12-18T00:42:35;103.87;;;30.97;;
6209;SDS011;3138;52.550;13.148;2022-12-18T00:45:20;91.67;;;28.90;;
6209;SDS011;3138;52.550;13.148;2022-12-18T00:47:50;100.67;;;31.83;;
6209;SDS011;3138;52.550;13.148;2022-12-18T00:50:17;91.37;;;30.30;;
6209;SDS011;3138;52.550;13.148;2022-12-18T00:52:44;91.03;;;29.00;;
6209;SDS011;3138;52.550;13.148;2022-12-18T00:55:11;95.83;;;32.30;;
6209;SDS011;3138;52.550;13.148;2022-12-18T00:57:38;93.57;;;31.63;;
6209;SDS011;3138;52.550;13.148;2022-12-18T01:00:06;101.33;;;32.07;;
6209;SDS011;3138;52.550;13.148;2022-12-18T01:02:35;84.27;;;29.20;;
6209;SDS011;3138;52.550;13.148;2022-12-18T01:05:02;95.37;;;30.10;;
6209;SDS011;3138;52.550;13.148;2022-12-18T01:07:30;100.37;;;28.40;;
6209;SDS011;3138;52.550;13.148;2022-12-18T01:09:57;100.33;;;29.53;;
6209;SDS011;3138;52.550;13.148;2022-12-18T01:12:23;96.43;;;29.70;;
6209;SDS011;3138;52.550;13.148;2022-12-18T01:14:50;105.43;;;33.17;;
6209;SDS011;3138;52.550;13.148;2022-12-18T01:17:17;99.57;;;32.10;;
6209;SDS011;3138;52.550;13.148;2022-12-18T01:19:45;94.70;;;28.17;;
6209;SDS011;3138;52.550;13.148;2022-12-18T01:22:12;96.27;;;27.20;;
6209;SDS011;3138;52.550;13.148;2022-12-18T01:24:39;94.13;;;28.53;;
6209;SDS011;3138;52.550;13.148;2022-12-18T01:27:06;88.33;;;29.20;;
6209;SDS011;3138;52.550;13.148;2022-12-18T01:29:33;88.50;;;28.47;;
6209;SDS011;3138;52.550;13.148;2022-12-18T01:31:59;78.60;;;26.03;;
6209;SDS011;3138;52.550;13.148;2022-12-18T01:34:26;87.90;;;31.00;;
6209;SDS011;3138;52.550;13.148;2022-12-18T01:36:54;80.40;;;27.20;;
6209;SDS011;3138;52.550;13.148;2022-12-18T01:39:21;103.23;;;29.40;;
6209;SDS011;3138;52.550;13.148;2022-12-18T01:41:48;95.27;;;29.07;;
6209;SDS011;3138;52.550;13.148;2022-12-18T01:47:31;107.03;;;31.23;;
6209;SDS011;3138;52.550;13.148;2022-12-18T01:50:04;114.37;;;31.40;;
6209;SDS011;3138;52.550;13.148;2022-12-18T01:52:35;91.93;;;30.30;;
6209;SDS011;3138;52.550;13.148;2022-12-18T01:55:03;113.30;;;30.37;;
6209;SDS011;3138;52.550;13.148;2022-12-18T01:57:32;109.03;;;30.70;;
6209;SDS011;3138;52.550;13.148;2022-12-18T02:00:00;114.07;;;31.53;;
6209;SDS011;3138;52.550;13.148;2022-12-18T02:02:30;102.00;;;28.43;;
6209;SDS011;3138;52.550;13.148;2022-12-18T02:04:57;96.03;;;31.17;;
6209;SDS011;3138;52.550;13.148;2022-12-18T02:07:26;114.70;;;32.70;;
6209;SDS011;3138;52.550;13.148;2022-12-18T02:10:00;114.10;;;31.57;;
6209;SDS011;3138;52.550;13.148;2022-12-18T02:12:33;93.80;;;29.77;;
6209;SDS011;3138;52.550;13.148;2022-12-18T02:15:06;110.10;;;32.03;;
6209;SDS011;3138;52.550;13.148;2022-12-18T02:17:40;93.93;;;30.50;;
6209;SDS011;3138;52.550;13.148;2022-12-18T02:20:12;104.03;;;31.23;;
6209;SDS011;3138;52.550;13.148;2022-12-18T02:22:46;119.03;;;33.77;;
6209;SDS011;3138;52.550;13.148;2022-12-18T02:25:29;108.70;;;31.40;;
6209;SDS011;3138;52.550;13.148;2022-12-18T02:28:10;121.60;;;33.60;;
6209;SDS011;3138;52.550;13.148;2022-12-18T02:30:39;121.10;;;33.90;;
6209;SDS011;3138;52.550;13.148;2022-12-18T02:33:08;117.43;;;30.37;;
6209;SDS011;3138;52.550;13.148;2022-12-18T02:35:37;122.87;;;33.37;;
6209;SDS011;3138;52.550;13.148;2022-12-18T02:38:06;104.83;;;31.00;;
6209;SDS011;3138;52.550;13.148;2022-12-18T02:40:33;107.90;;;30.57;;
6209;SDS011;3138;52.550;13.148;2022-12-18T02:43:02;108.60;;;32.37;;
6209;SDS011;3138;52.550;13.148;2022-12-18T02:45:34;101.13;;;30.47;;
6209;SDS011;3138;52.550;13.148;2022-12-18T02:48:01;105.73;;;28.60;;
6209;SDS011;3138;52.550;13.148;2022-12-18T02:50:30;99.23;;;29.47;;
6209;SDS011;3138;52.550;13.148;2022-12-18T02:53:04;90.37;;;25.13;;
6209;SDS011;3138;52.550;13.148;2022-12-18T02:55:42;87.77;;;26.73;;
6209;SDS011;3138;52.550;13.148;2022-12-18T02:58:17;90.30;;;28.67;;
6209;SDS011;3138;52.550;13.148;2022-12-18T03:00:51;102.53;;;29.80;;
6209;SDS011;3138;52.550;13.148;2022-12-18T03:03:25;100.27;;;30.47;;
6209;SDS011;3138;52.550;13.148;2022-12-18T03:05:56;87.97;;;27.93;;
6209;SDS011;3138;52.550;13.148;2022-12-18T03:08:29;106.00;;;32.77;;
6209;SDS011;3138;52.550;13.148;2022-12-18T03:11:00;113.80;;;33.07;;
6209;SDS011;3138;52.550;13.148;2022-12-18T03:13:30;123.37;;;30.17;;
6209;SDS011;3138;52.550;13.148;2022-12-18T03:16:01;93.33;;;28.03;;
6209;SDS011;3138;52.550;13.148;2022-12-18T03:18:33;105.27;;;32.97;;
6209;SDS011;3138;52.550;13.148;2022-12-18T03:21:02;106.57;;;31.80;;
6209;SDS011;3138;52.550;13.148;2022-12-18T03:23:33;111.50;;;31.80;;
6209;SDS011;3138;52.550;13.148;2022-12-18T03:26:05;108.87;;;30.80;;
6209;SDS011;3138;52.550;13.148;2022-12-18T03:28:36;118.83;;;32.93;;
6209;SDS011;3138;52.550;13.148;2022-12-18T03:31:10;109.23;;;32.17;;
6209;SDS011;3138;52.550;13.148;2022-12-18T03:33:39;99.07;;;29.20;;
6209;SDS011;3138;52.550;13.148;2022-12-18T03:36:12;90.97;;;28.60;;
6209;SDS011;3138;52.550;13.148;2022-12-18T03:38:39;108.27;;;32.30;;
6209;SDS011;3138;52.550;13.148;2022-12-18T03:41:07;89.63;;;27.60;;
6209;SDS011;3138;52.550;13.148;2022-12-18T03:43:43;86.63;;;27.00;;
6209;SDS011;3138;52.550;13.148;2022-12-18T03:46:17;103.73;;;29.30;;
6209;SDS011;3138;52.550;13.148;2022-12-18T03:48:55;95.60;;;29.77;;
6209;SDS011;3138;52.550;13.148;2022-12-18T03:51:28;96.30;;;30.10;;
6209;SDS011;3138;52.550;13.148;2022-12-18T03:54:03;95.77;;;31.63;;
6209;SDS011;3138;52.550;13.148;2022-12-18T03:56:33;96.53;;;29.47;;
6209;SDS011;3138;52.550;13.148;2022-12-18T03:59:05;110.83;;;29.30;;
6209;SDS011;3138;52.550;13.148;2022-12-18T04:01:36;93.33;;;27.70;;
6209;SDS011;3138;52.550;13.148;2022-12-18T04:04:06;91.93;;;28.30;;
6209;SDS011;3138;52.550;13.148;2022-12-18T04:06:34;90.23;;;26.07;;
6209;SDS011;3138;52.550;13.148;2022-12-18T04:09:02;99.83;;;29.13;;
6209;SDS011;3138;52.550;13.148;2022-12-18T04:11:30;98.13;;;28.17;;
6209;SDS011;3138;52.550;13.148;2022-12-18T04:13:57;93.83;;;28.23;;
6209;SDS011;3138;52.550;13.148;2022-12-18T04:16:24;108.33;;;31.00;;
6209;SDS011;3138;52.550;13.148;2022-12-18T04:18:53;91.90;;;28.23;;
6209;SDS011;3138;52.550;13.148;2022-12-18T04:21:20;100.67;;;28.87;;
6209;SDS011;3138;52.550;13.148;2022-12-18T04:23:47;96.43;;;28.00;;
6209;SDS011;3138;52.550;13.148;2022-12-18T04:26:14;82.27;;;28.70;;
6209;SDS011;3138;52.550;13.148;2022-12-18T04:28:41;89.83;;;29.40;;
6209;SDS011;3138;52.550;13.148;2022-12-18T04:31:08;90.50;;;30.03;;
6209;SDS011;3138;52.550;13.148;2022-12-18T04:33:35;104.33;;;31.20;;
6209;SDS011;3138;52.550;13.148;2022-12-18T04:36:03;106.07;;;30.97;;
6209;SDS011;3138;52.550;13.148;2022-12-18T04:38:31;110.30;;;31.07;;
6209;SDS011;3138;52.550;13.148;2022-12-18T04:40:58;110.27;;;31.13;;
6209;SDS011;3138;52.550;13.148;2022-12-18T04:43:25;93.60;;;31.17;;
6209;SDS011;3138;52.550;13.148;2022-12-18T04:45:52;103.10;;;28.00;;
6209;SDS011;3138;52.550;13.148;2022-12-18T04:48:18;117.03;;;34.17;;
6209;SDS011;3138;52.550;13.148;2022-12-18T04:50:46;115.73;;;32.20;;
6209;SDS011;3138;52.550;13.148;2022-12-18T04:53:14;107.23;;;33.57;;
6209;SDS011;3138;52.550;13.148;2022-12-18T04:55:41;113.80;;;34.00;;
6209;SDS011;3138;52.550;13.148;2022-12-18T04:58:08;97.47;;;31.50;;
6209;SDS011;3138;52.550;13.148;2022-12-18T05:00:35;107.53;;;33.17;;
6209;SDS011;3138;52.550;13.148;2022-12-18T05:03:02;104.80;;;32.77;;
6209;SDS011;3138;52.550;13.148;2022-12-18T05:05:29;95.17;;;31.20;;
6209;SDS011;3138;52.550;13.148;2022-12-18T05:07:55;106.83;;;34.07;;
6209;SDS011;3138;52.550;13.148;2022-12-18T05:10:24;120.63;;;33.70;;
6209;SDS011;3138;52.550;13.148;2022-12-18T05:12:50;116.47;;;34.63;;
6209;SDS011;3138;52.550;13.148;2022-12-18T05:15:27;106.70;;;33.17;;
6209;SDS011;3138;52.550;13.148;2022-12-18T05:17:55;101.83;;;33.37;;
6209;SDS011;3138;52.550;13.148;2022-12-18T05:20:22;116.67;;;34.20;;
6209;SDS011;3138;52.550;13.148;2022-12-18T05:22:49;100.27;;;34.27;;
6209;SDS011;3138;52.550;13.148;2022-12-18T05:25:16;120.43;;;36.47;;
6209;SDS011;3138;52.550;13.148;2022-12-18T05:27:45;106.50;;;33.80;;
6209;SDS011;3138;52.550;13.148;2022-12-18T05:30:12;110.90;;;32.77;;
6209;SDS011;3138;52.550;13.148;2022-12-18T05:32:40;112.17;;;33.37;;
6209;SDS011;3138;52.550;13.148;2022-12-18T05:35:07;92.50;;;32.20;;
6209;SDS011;3138;52.550;13.148;2022-12-18T05:37:35;102.83;;;31.27;;
6209;SDS011;3138;52.550;13.148;2022-12-18T05:40:03;118.77;;;32.77;;
6209;SDS011;3138;52.550;13.148;2022-12-18T05:42:30;117.20;;;31.87;;
6209;SDS011;3138;52.550;13.148;2022-12-18T05:44:59;119.17;;;33.30;;
6209;SDS011;3138;52.550;13.148;2022-12-18T05:47:26;114.43;;;34.97;;
6209;SDS011;3138;52.550;13.148;2022-12-18T05:49:53;97.73;;;33.60;;
6209;SDS011;3138;52.550;13.148;2022-12-18T05:52:20;98.97;;;29.23;;
6209;SDS011;3138;52.550;13.148;2022-12-18T05:54:47;94.17;;;28.50;;
6209;SDS011;3138;52.550;13.148;2022-12-18T05:57:14;93.60;;;30.47;;
6209;SDS011;3138;52.550;13.148;2022-12-18T05:59:41;110.20;;;30.73;;
6209;SDS011;3138;52.550;13.148;2022-12-18T06:02:09;92.70;;;31.10;;
6209;SDS011;3138;52.550;13.148;2022-12-18T06:04:36;113.17;;;33.30;;
6209;SDS011;3138;52.550;13.148;2022-12-18T06:07:03;111.50;;;34.50;;
6209;SDS011;3138;52.550;13.148;2022-12-18T06:09:30;105.30;;;35.33;;
6209;SDS011;3138;52.550;13.148;2022-12-18T06:11:57;97.33;;;32.93;;
6209;SDS011;3138;52.550;13.148;2022-12-18T06:14:24;95.77;;;32.20;;
6209;SDS011;3138;52.550;13.148;2022-12-18T06:16:50;101.33;;;34.20;;
6209;SDS011;3138;52.550;13.148;2022-12-18T06:19:19;95.63;;;33.57;;
6209;SDS011;3138;52.550;13.148;2022-12-18T06:21:45;93.73;;;31.60;;
6209;SDS011;3138;52.550;13.148;2022-12-18T06:24:14;93.30;;;30.63;;
6209;SDS011;3138;52.550;13.148;2022-12-18T06:26:41;108.70;;;34.90;;
6209;SDS011;3138;52.550;13.148;2022-12-18T06:29:08;98.10;;;32.73;;
6209;SDS011;3138;52.550;13.148;2022-12-18T06:31:35;81.47;;;30.03;;
6209;SDS011;3138;52.550;13.148;2022-12-18T06:34:02;101.63;;;30.90;;
6209;SDS011;3138;52.550;13.148;2022-12-18T06:36:31;89.57;;;28.90;;
6209;SDS011;3138;52.550;13.148;2022-12-18T06:38:58;76.57;;;25.60;;
6209;SDS011;3138;52.550;13.148;2022-12-18T06:41:25;102.57;;;31.03;;
6209;SDS011;3138;52.550;13.148;2022-12-18T06:43:52;98.30;;;27.93;;
6209;SDS011;3138;52.550;13.148;2022-12-18T06:46:19;86.20;;;28.80;;
6209;SDS011;3138;52.550;13.148;2022-12-18T06:48:46;91.43;;;28.03;;
6209;SDS011;3138;52.550;13.148;2022-12-18T06:51:15;97.83;;;29.80;;
6209;SDS011;3138;52.550;13.148;2022-12-18T06:53:45;94.50;;;32.50;;
6209;SDS011;3138;52.550;13.148;2022-12-18T06:56:12;79.57;;;28.47;;
6209;SDS011;3138;52.550;13.148;2022-12-18T06:58:39;83.93;;;30.17;;
6209;SDS011;3138;52.550;13.148;2022-12-18T07:01:07;86.07;;;30.57;;
6209;SDS011;3138;52.550;13.148;2022-12-18T07:03:36;93.60;;;31.27;;
6209;SDS011;3138;52.550;13.148;2022-12-18T07:06:03;88.07;;;31.23;;
6209;SDS011;3138;52.550;13.148;2022-12-18T07:08:30;93.63;;;31.90;;
6209;SDS011;3138;52.550;13.148;2022-12-18T07:10:59;76.73;;;29.03;;
6209;SDS011;3138;52.550;13.148;2022-12-18T07:13:28;66.87;;;27.60;;
6209;SDS011;3138;52.550;13.148;2022-12-18T07:15:55;84.50;;;27.80;;
6209;SDS011;3138;52.550;13.148;2022-12-18T07:18:29;72.83;;;26.07;;
6209;SDS011;3138;52.550;13.148;2022-12-18T07:20:56;69.67;;;25.80;;
6209;SDS011;3138;52.550;13.148;2022-12-18T07:23:23;64.90;;;24.83;;
6209;SDS011;3138;52.550;13.148;2022-12-18T07:25:50;74.73;;;24.40;;
6209;SDS011;3138;52.550;13.148;2022-12-18T07:28:18;67.37;;;24.70;;
6209;SDS011;3138;52.550;13.148;2022-12-18T07:30:45;69.70;;;26.00;;
6209;SDS011;3138;52.550;13.148;2022-12-18T07:33:12;78.87;;;28.53;;
6209;SDS011;3138;52.550;13.148;2022-12-18T07:35:38;83.87;;;28.30;;
6209;SDS011;3138;52.550;13.148;2022-12-18T07:38:05;88.43;;;26.17;;
6209;SDS011;3138;52.550;13.148;2022-12-18T07:40:32;76.83;;;27.17;;
6209;SDS011;3138;52.550;13.148;2022-12-18T07:42:59;80.80;;;25.60;;
6209;SDS011;3138;52.550;13.148;2022-12-18T07:45:27;83.80;;;28.03;;
6209;SDS011;3138;52.550;13.148;2022-12-18T07:47:57;108.23;;;30.67;;
6209;SDS011;3138;52.550;13.148;2022-12-18T07:50:24;86.47;;;30.70;;
6209;SDS011;3138;52.550;13.148;2022-12-18T07:52:51;84.30;;;26.13;;
6209;SDS011;3138;52.550;13.148;2022-12-18T07:55:17;95.00;;;29.17;;
6209;SDS011;3138;52.550;13.148;2022-12-18T07:57:44;94.20;;;31.17;;
6209;SDS011;3138;52.550;13.148;2022-12-18T08:00:11;95.97;;;32.00;;
6209;SDS011;3138;52.550;13.148;2022-12-18T08:02:40;89.13;;;31.27;;
6209;SDS011;3138;52.550;13.148;2022-12-18T08:05:07;83.13;;;27.97;;
6209;SDS011;3138;52.550;13.148;2022-12-18T08:07:35;94.80;;;30.93;;
6209;SDS011;3138;52.550;13.148;2022-12-18T08:10:05;93.30;;;29.13;;
6209;SDS011;3138;52.550;13.148;2022-12-18T08:12:32;108.70;;;32.10;;
6209;SDS011;3138;52.550;13.148;2022-12-18T08:14:59;96.23;;;29.30;;
6209;SDS011;3138;52.550;13.148;2022-12-18T08:17:26;100.37;;;30.87;;
6209;SDS011;3138;52.550;13.148;2022-12-18T08:19:54;102.50;;;33.07;;
6209;SDS011;3138;52.550;13.148;2022-12-18T08:22:22;102.63;;;32.73;;
6209;SDS011;3138;52.550;13.148;2022-12-18T08:24:49;110.10;;;33.27;;
6209;SDS011;3138;52.550;13.148;2022-12-18T08:27:16;119.53;;;35.00;;
6209;SDS011;3138;52.550;13.148;2022-12-18T08:29:43;104.47;;;33.03;;
6209;SDS011;3138;52.550;13.148;2022-12-18T08:32:10;122.40;;;35.90;;
6209;SDS011;3138;52.550;13.148;2022-12-18T08:34:37;115.60;;;35.27;;
6209;SDS011;3138;52.550;13.148;2022-12-18T08:37:05;137.70;;;41.27;;
6209;SDS011;3138;52.550;13.148;2022-12-18T08:39:32;115.23;;;34.37;;
6209;SDS011;3138;52.550;13.148;2022-12-18T08:41:59;149.03;;;38.20;;
6209;SDS011;3138;52.550;13.148;2022-12-18T08:44:58;126.93;;;36.97;;
6209;SDS011;3138;52.550;13.148;2022-12-18T08:47:25;129.97;;;40.90;;
6209;SDS011;3138;52.550;13.148;2022-12-18T08:49:52;162.77;;;50.27;;
6209;SDS011;3138;52.550;13.148;2022-12-18T08:52:20;133.43;;;36.60;;
6209;SDS011;3138;52.550;13.148;2022-12-18T08:54:47;109.63;;;35.60;;
6209;SDS011;3138;52.550;13.148;2022-12-18T08:57:13;120.63;;;38.47;;
6209;SDS011;3138;52.550;13.148;2022-12-18T08:59:41;115.97;;;38.10;;
6209;SDS011;3138;52.550;13.148;2022-12-18T09:02:08;122.03;;;37.37;;
6209;SDS011;3138;52.550;13.148;2022-12-18T09:04:36;114.13;;;34.93;;
6209;SDS011;3138;52.550;13.148;2022-12-18T09:07:04;107.90;;;34.30;;
6209;SDS011;3138;52.550;13.148;2022-12-18T09:09:32;111.43;;;34.70;;
6209;SDS011;3138;52.550;13.148;2022-12-18T09:11:59;104.40;;;31.50;;
6209;SDS011;3138;52.550;13.148;2022-12-18T09:14:26;89.83;;;31.43;;
6209;SDS011;3138;52.550;13.148;2022-12-18T09:16:53;92.43;;;32.70;;
6209;SDS011;3138;52.550;13.148;2022-12-18T09:19:20;88.63;;;29.10;;
6209;SDS011;3138;52.550;13.148;2022-12-18T09:21:47;89.80;;;30.53;;
6209;SDS011;3138;52.550;13.148;2022-12-18T09:24:14;86.30;;;30.73;;
6209;SDS011;3138;52.550;13.148;2022-12-18T09:26:43;98.60;;;32.00;;
6209;SDS011;3138;52.550;13.148;2022-12-18T09:29:12;104.47;;;35.47;;
6209;SDS011;3138;52.550;13.148;2022-12-18T09:31:39;89.37;;;33.40;;
6209;SDS011;3138;52.550;13.148;2022-12-18T09:34:06;82.23;;;30.00;;
6209;SDS011;3138;52.550;13.148;2022-12-18T09:36:33;79.63;;;30.20;;
6209;SDS011;3138;52.550;13.148;2022-12-18T09:39:00;90.20;;;28.90;;
6209;SDS011;3138;52.550;13.148;2022-12-18T09:41:35;92.63;;;29.23;;
6209;SDS011;3138;52.550;13.148;2022-12-18T09:44:13;78.10;;;26.73;;
6209;SDS011;3138;52.550;13.148;2022-12-18T09:46:45;79.33;;;30.83;;
6209;SDS011;3138;52.550;13.148;2022-12-18T09:49:16;83.43;;;30.47;;
6209;SDS011;3138;52.550;13.148;2022-12-18T09:51:47;99.57;;;30.93;;
6209;SDS011;3138;52.550;13.148;2022-12-18T09:54:20;82.13;;;27.30;;
6209;SDS011;3138;52.550;13.148;2022-12-18T09:56:50;82.40;;;25.27;;
6209;SDS011;3138;52.550;13.148;2022-12-18T09:59:18;74.53;;;26.33;;
6209;SDS011;3138;52.550;13.148;2022-12-18T10:01:49;74.93;;;30.00;;
6209;SDS011;3138;52.550;13.148;2022-12-18T10:04:16;94.10;;;29.70;;
6209;SDS011;3138;52.550;13.148;2022-12-18T10:06:45;84.33;;;30.70;;
6209;SDS011;3138;52.550;13.148;2022-12-18T10:09:18;88.43;;;29.37;;
6209;SDS011;3138;52.550;13.148;2022-12-18T10:11:53;85.43;;;31.03;;
6209;SDS011;3138;52.550;13.148;2022-12-18T10:14:33;81.43;;;26.67;;
6209;SDS011;3138;52.550;13.148;2022-12-18T10:17:05;81.17;;;27.50;;
6209;SDS011;3138;52.550;13.148;2022-12-18T10:19:40;79.37;;;27.77;;
6209;SDS011;3138;52.550;13.148;2022-12-18T10:22:18;79.73;;;29.80;;
6209;SDS011;3138;52.550;13.148;2022-12-18T10:24:53;92.13;;;29.40;;
6209;SDS011;3138;52.550;13.148;2022-12-18T10:27:27;67.40;;;26.10;;
6209;SDS011;3138;52.550;13.148;2022-12-18T10:29:54;88.97;;;31.37;;
6209;SDS011;3138;52.550;13.148;2022-12-18T10:32:22;95.00;;;32.87;;
6209;SDS011;3138;52.550;13.148;2022-12-18T10:34:51;95.23;;;32.30;;
6209;SDS011;3138;52.550;13.148;2022-12-18T10:37:19;94.80;;;32.30;;
6209;SDS011;3138;52.550;13.148;2022-12-18T10:40:04;96.40;;;33.87;;
6209;SDS011;3138;52.550;13.148;2022-12-18T10:42:36;94.10;;;31.50;;
6209;SDS011;3138;52.550;13.148;2022-12-18T10:45:03;86.97;;;31.30;;
6209;SDS011;3138;52.550;13.148;2022-12-18T10:47:41;104.50;;;36.57;;
6209;SDS011;3138;52.550;13.148;2022-12-18T10:50:18;114.67;;;33.87;;
6209;SDS011;3138;52.550;13.148;2022-12-18T10:52:57;95.60;;;33.83;;
6209;SDS011;3138;52.550;13.148;2022-12-18T10:55:26;104.57;;;31.87;;
6209;SDS011;3138;52.550;13.148;2022-12-18T10:58:02;84.30;;;30.10;;
6209;SDS011;3138;52.550;13.148;2022-12-18T11:00:42;100.83;;;35.50;;
6209;SDS011;3138;52.550;13.148;2022-12-18T11:03:17;103.60;;;36.00;;
6209;SDS011;3138;52.550;13.148;2022-12-18T11:06:01;103.97;;;33.00;;
6209;SDS011;3138;52.550;13.148;2022-12-18T11:08:29;104.73;;;34.40;;
6209;SDS011;3138;52.550;13.148;2022-12-18T11:10:56;81.83;;;29.43;;
6209;SDS011;3138;52.550;13.148;2022-12-18T11:13:25;86.83;;;34.73;;
6209;SDS011;3138;52.550;13.148;2022-12-18T11:15:54;80.43;;;29.60;;
6209;SDS011;3138;52.550;13.148;2022-12-18T11:18:22;85.90;;;32.60;;
6209;SDS011;3138;52.550;13.148;2022-12-18T11:20:53;81.67;;;32.30;;
6209;SDS011;3138;52.550;13.148;2022-12-18T11:23:22;82.47;;;28.80;;
6209;SDS011;3138;52.550;13.148;2022-12-18T11:25:54;60.23;;;24.70;;
6209;SDS011;3138;52.550;13.148;2022-12-18T11:28:29;60.37;;;24.57;;
6209;SDS011;3138;52.550;13.148;2022-12-18T11:31:18;61.07;;;24.07;;
6209;SDS011;3138;52.550;13.148;2022-12-18T11:33:50;65.87;;;26.33;;
6209;SDS011;3138;52.550;13.148;2022-12-18T11:36:28;72.43;;;26.33;;
6209;SDS011;3138;52.550;13.148;2022-12-18T11:38:59;71.63;;;25.37;;
6209;SDS011;3138;52.550;13.148;2022-12-18T11:41:29;62.00;;;24.70;;
6209;SDS011;3138;52.550;13.148;2022-12-18T11:44:21;68.23;;;27.13;;
6209;SDS011;3138;52.550;13.148;2022-12-18T11:46:53;66.17;;;26.43;;
6209;SDS011;3138;52.550;13.148;2022-12-18T11:49:26;67.23;;;25.20;;
6209;SDS011;3138;52.550;13.148;2022-12-18T11:51:58;65.27;;;25.70;;
6209;SDS011;3138;52.550;13.148;2022-12-18T11:54:27;60.33;;;22.50;;
6209;SDS011;3138;52.550;13.148;2022-12-18T11:56:55;63.27;;;25.50;;
6209;SDS011;3138;52.550;13.148;2022-12-18T11:59:32;64.43;;;24.83;;
6209;SDS011;3138;52.550;13.148;2022-12-18T12:02:12;90.70;;;27.90;;
6209;SDS011;3138;52.550;13.148;2022-12-18T12:05:11;65.63;;;25.80;;
6209;SDS011;3138;52.550;13.148;2022-12-18T12:07:47;71.13;;;23.80;;
6209;SDS011;3138;52.550;13.148;2022-12-18T12:10:25;72.87;;;25.50;;
6209;SDS011;3138;52.550;13.148;2022-12-18T12:13:03;69.77;;;24.23;;
6209;SDS011;3138;52.550;13.148;2022-12-18T12:15:42;69.97;;;27.43;;
6209;SDS011;3138;52.550;13.148;2022-12-18T12:18:25;71.93;;;28.70;;
6209;SDS011;3138;52.550;13.148;2022-12-18T12:21:04;66.30;;;27.67;;
6209;SDS011;3138;52.550;13.148;2022-12-18T12:23:39;64.00;;;26.03;;
6209;SDS011;3138;52.550;13.148;2022-12-18T12:26:10;61.87;;;25.77;;
6209;SDS011;3138;52.550;13.148;2022-12-18T12:31:32;70.17;;;27.47;;
6209;SDS011;3138;52.550;13.148;2022-12-18T12:34:13;58.90;;;26.27;;
6209;SDS011;3138;52.550;13.148;2022-12-18T12:36:48;59.50;;;26.20;;
6209;SDS011;3138;52.550;13.148;2022-12-18T12:39:28;57.67;;;24.63;;
6209;SDS011;3138;52.550;13.148;2022-12-18T12:41:59;62.07;;;25.77;;
6209;SDS011;3138;52.550;13.148;2022-12-18T12:44:45;53.87;;;24.60;;
6209;SDS011;3138;52.550;13.148;2022-12-18T12:47:20;64.17;;;26.80;;
6209;SDS011;3138;52.550;13.148;2022-12-18T12:49:51;56.27;;;22.93;;
6209;SDS011;3138;52.550;13.148;2022-12-18T12:52:21;59.03;;;25.30;;
6209;SDS011;3138;52.550;13.148;2022-12-18T12:54:54;56.67;;;25.47;;
6209;SDS011;3138;52.550;13.148;2022-12-18T12:57:23;71.90;;;26.93;;
6209;SDS011;3138;52.550;13.148;2022-12-18T12:59:56;69.80;;;23.87;;
6209;SDS011;3138;52.550;13.148;2022-12-18T13:02:30;62.83;;;28.93;;
6209;SDS011;3138;52.550;13.148;2022-12-18T13:05:03;57.53;;;25.63;;
6209;SDS011;3138;52.550;13.148;2022-12-18T13:07:45;64.00;;;26.23;;
6209;SDS011;3138;52.550;13.148;2022-12-18T13:10:26;52.37;;;23.53;;
6209;SDS011;3138;52.550;13.148;2022-12-18T13:12:59;69.77;;;26.73;;
6209;SDS011;3138;52.550;13.148;2022-12-18T13:15:29;72.40;;;27.63;;
6209;SDS011;3138;52.550;13.148;2022-12-18T13:18:04;66.27;;;26.83;;
6209;SDS011;3138;52.550;13.148;2022-12-18T13:20:38;72.03;;;28.17;;
6209;SDS011;3138;52.550;13.148;2022-12-18T13:23:20;72.07;;;29.10;;
6209;SDS011;3138;52.550;13.148;2022-12-18T13:25:53;75.83;;;28.83;;
6209;SDS011;3138;52.550;13.148;2022-12-18T13:28:21;72.20;;;28.20;;
6209;SDS011;3138;52.550;13.148;2022-12-18T13:30:54;75.37;;;29.37;;
6209;SDS011;3138;52.550;13.148;2022-12-18T13:33:39;69.67;;;29.93;;
6209;SDS011;3138;52.550;13.148;2022-12-18T13:36:13;74.07;;;27.53;;
6209;SDS011;3138;52.550;13.148;2022-12-18T13:39:08;71.10;;;27.87;;
6209;SDS011;3138;52.550;13.148;2022-12-18T13:45:37;67.67;;;27.60;;
6209;SDS011;3138;52.550;13.148;2022-12-18T13:48:17;57.47;;;26.07;;
6209;SDS011;3138;52.550;13.148;2022-12-18T13:50:49;63.83;;;24.97;;
6209;SDS011;3138;52.550;13.148;2022-12-18T13:53:21;69.73;;;26.80;;
6209;SDS011;3138;52.550;13.148;2022-12-18T13:55:52;60.00;;;25.47;;
6209;SDS011;3138;52.550;13.148;2022-12-18T13:58:19;63.93;;;26.77;;
6209;SDS011;3138;52.550;13.148;2022-12-18T14:00:46;65.67;;;25.90;;
6209;SDS011;3138;52.550;13.148;2022-12-18T14:03:17;81.33;;;29.30;;
6209;SDS011;3138;52.550;13.148;2022-12-18T14:05:46;74.80;;;26.53;;
6209;SDS011;3138;52.550;13.148;2022-12-18T14:08:25;69.20;;;29.57;;
6209;SDS011;3138;52.550;13.148;2022-12-18T14:10:58;71.90;;;28.80;;
6209;SDS011;3138;52.550;13.148;2022-12-18T14:13:27;65.37;;;26.77;;
6209;SDS011;3138;52.550;13.148;2022-12-18T14:15:57;73.80;;;29.87;;
6209;SDS011;3138;52.550;13.148;2022-12-18T14:18:26;53.43;;;24.00;;
6209;SDS011;3138;52.550;13.148;2022-12-18T14:21:00;67.77;;;26.17;;
6209;SDS011;3138;52.550;13.148;2022-12-18T14:23:29;59.57;;;26.67;;
6209;SDS011;3138;52.550;13.148;2022-12-18T14:25:59;55.43;;;25.67;;
6209;SDS011;3138;52.550;13.148;2022-12-18T14:28:27;64.13;;;29.47;;
6209;SDS011;3138;52.550;13.148;2022-12-18T14:30:54;65.10;;;29.20;;
6209;SDS011;3138;52.550;13.148;2022-12-18T14:33:23;59.23;;;23.07;;
6209;SDS011;3138;52.550;13.148;2022-12-18T14:35:57;65.17;;;29.93;;
6209;SDS011;3138;52.550;13.148;2022-12-18T14:38:28;71.57;;;28.90;;
6209;SDS011;3138;52.550;13.148;2022-12-18T14:40:56;64.23;;;27.90;;
6209;SDS011;3138;52.550;13.148;2022-12-18T14:43:25;72.50;;;29.67;;
6209;SDS011;3138;52.550;13.148;2022-12-18T14:45:52;64.60;;;29.33;;
6209;SDS011;3138;52.550;13.148;2022-12-18T14:48:20;77.80;;;29.30;;
6209;SDS011;3138;52.550;13.148;2022-12-18T14:51:00;65.80;;;29.30;;
6209;SDS011;3138;52.550;13.148;2022-12-18T14:53:32;67.43;;;29.37;;
6209;SDS011;3138;52.550;13.148;2022-12-18T14:56:01;67.70;;;29.53;;
6209;SDS011;3138;52.550;13.148;2022-12-18T14:58:29;85.50;;;33.53;;